sensor_id;sensor_type;location;lat;lon;timestamp;pressure;altitude;pressure_sealevel;temperature;humidity
5522;BME280;2783;48.730;8.006;2023-05-07T00:01:22;99895.81;;;15.98;100.00
5522;BME280;2783;48.730;8.006;2023-05-07T00:03:47;99890.63;;;15.95;100.00
5522;BME280;2783;48.730;8.006;2023-05-07T00:06:12;99882.72;;;15.92;100.00
5522;BME280;2783;48.730;8.006;2023-05-07T00:08:38;99895.13;;;15.94;100.00
5522;BME280;2783;48.730;8.006;2023-05-07T00:11:03;99897.72;;;15.96;100.00
5522;BME280;2783;48.730;8.006;2023-05-07T00:13:28;99903.25;;;15.93;100.00
5522;BME280;2783;48.730;8.006;2023-05-07T00:16:00;99898.91;;;15.90;100.00
5522;BME280;2783;48.730;8.006;2023-05-07T00:18:25;99894.41;;;15.91;100.00
5522;BME280;2783;48.730;8.006;2023-05-07T00:20:50;99893.91;;;15.84;100.00
5522;BME280;2783;48.730;8.006;2023-05-07T00:23:16;99887.66;;;15.83;100.00
5522;BME280;2783;48.730;8.006;2023-05-07T00:25:41;99893.97;;;15.82;100.00
5522;BME280;2783;48.730;8.006;2023-05-07T00:28:06;99889.91;;;15.75;100.00
5522;BME280;2783;48.730;8.006;2023-05-07T00:30:31;99889.91;;;15.75;100.00
5522;BME280;2783;48.730;8.006;2023-05-07T00:32:57;99887.03;;;15.78;100.00
5522;BME280;2783;48.730;8.006;2023-05-07T00:35:22;99889.91;;;15.75;100.00
5522;BME280;2783;48.730;8.006;2023-05-07T00:37:47;99891.97;;;15.70;100.00
5522;BME280;2783;48.730;8.006;2023-05-07T00:40:14;99897.69;;;15.64;100.00
5522;BME280;2783;48.730;8.006;2023-05-07T00:42:39;99901.31;;;15.63;100.00
5522;BME280;2783;48.730;8.006;2023-05-07T00:45:04;99902.16;;;15.64;100.00
5522;BME280;2783;48.730;8.006;2023-05-07T00:47:30;99902.16;;;15.64;100.00
5522;BME280;2783;48.730;8.006;2023-05-07T00:49:56;99898.47;;;15.66;100.00
5522;BME280;2783;48.730;8.006;2023-05-07T00:52:21;99903.84;;;15.66;100.00
5522;BME280;2783;48.730;8.006;2023-05-07T00:54:50;99903.88;;;15.65;100.00
5522;BME280;2783;48.730;8.006;2023-05-07T00:57:15;99896.72;;;15.65;100.00
5522;BME280;2783;48.730;8.006;2023-05-07T00:59:40;99898.53;;;15.65;100.00
5522;BME280;2783;48.730;8.006;2023-05-07T01:02:06;99885.38;;;15.60;100.00
5522;BME280;2783;48.730;8.006;2023-05-07T01:04:31;99881.16;;;15.56;100.00
5522;BME280;2783;48.730;8.006;2023-05-07T01:06:57;99877.06;;;15.49;100.00
5522;BME280;2783;48.730;8.006;2023-05-07T01:09:23;99873.78;;;15.44;100.00
5522;BME280;2783;48.730;8.006;2023-05-07T01:11:49;99871.34;;;15.40;100.00
5522;BME280;2783;48.730;8.006;2023-05-07T01:14:15;99881.34;;;15.36;100.00
5522;BME280;2783;48.730;8.006;2023-05-07T01:16:41;99878.91;;;15.32;100.00
5522;BME280;2783;48.730;8.006;2023-05-07T01:19:07;99892.22;;;15.33;100.00
5522;BME280;2783;48.730;8.006;2023-05-07T01:21:33;99883.41;;;15.31;100.00
5522;BME280;2783;48.730;8.006;2023-05-07T01:23:59;99885.28;;;15.29;100.00
5522;BME280;2783;48.730;8.006;2023-05-07T01:26:25;99882.78;;;15.26;100.00
5522;BME280;2783;48.730;8.006;2023-05-07T01:28:51;99875.63;;;15.27;100.00
5522;BME280;2783;48.730;8.006;2023-05-07T01:31:16;99881.50;;;15.33;100.00
5522;BME280;2783;48.730;8.006;2023-05-07T01:33:42;99879.44;;;15.38;100.00
5522;BME280;2783;48.730;8.006;2023-05-07T01:36:09;99886.22;;;15.45;100.00
5522;BME280;2783;48.730;8.006;2023-05-07T01:38:36;99889.88;;;15.44;100.00
5522;BME280;2783;48.730;8.006;2023-05-07T01:41:02;99891.75;;;15.42;100.00
5522;BME280;2783;48.730;8.006;2023-05-07T01:43:28;99890.13;;;15.40;100.00
5522;BME280;2783;48.730;8.006;2023-05-07T01:45:54;99895.53;;;15.38;100.00
5522;BME280;2783;48.730;8.006;2023-05-07T01:48:20;99889.47;;;15.35;100.00
5522;BME280;2783;48.730;8.006;2023-05-07T01:50:45;99891.19;;;15.36;100.00
5522;BME280;2783;48.730;8.006;2023-05-07T01:53:11;99880.72;;;15.31;100.00
5522;BME280;2783;48.730;8.006;2023-05-07T01:55:36;99884.41;;;15.29;100.00
5522;BME280;2783;48.730;8.006;2023-05-07T01:58:02;99881.91;;;15.26;100.00
5522;BME280;2783;48.730;8.006;2023-05-07T02:00:27;99882.94;;;15.23;100.00
5522;BME280;2783;48.730;8.006;2023-05-07T02:02:52;99880.44;;;15.20;100.00
5522;BME280;2783;48.730;8.006;2023-05-07T02:05:18;99886.09;;;15.14;100.00
5522;BME280;2783;48.730;8.006;2023-05-07T02:07:43;99899.03;;;15.06;100.00
5522;BME280;2783;48.730;8.006;2023-05-07T02:10:09;99886.69;;;15.04;100.00
5522;BME280;2783;48.730;8.006;2023-05-07T02:12:34;99882.34;;;15.01;100.00
5522;BME280;2783;48.730;8.006;2023-05-07T02:14:59;99888.81;;;14.97;100.00
5522;BME280;2783;48.730;8.006;2023-05-07T02:17:25;99895.09;;;14.96;100.00
5522;BME280;2783;48.730;8.006;2023-05-07T02:19:51;99886.22;;;14.96;100.00
5522;BME280;2783;48.730;8.006;2023-05-07T02:22:16;99891.88;;;14.90;100.00
5522;BME280;2783;48.730;8.006;2023-05-07T02:24:41;99892.75;;;14.90;100.00
5522;BME280;2783;48.730;8.006;2023-05-07T02:27:06;99887.41;;;14.90;100.00
5522;BME280;2783;48.730;8.006;2023-05-07T02:29:32;99887.56;;;14.87;100.00
5522;BME280;2783;48.730;8.006;2023-05-07T02:31:57;99884.09;;;14.85;100.00
5522;BME280;2783;48.730;8.006;2023-05-07T02:34:22;99881.41;;;14.85;100.00
5522;BME280;2783;48.730;8.006;2023-05-07T02:36:47;99880.28;;;14.89;100.00
5522;BME280;2783;48.730;8.006;2023-05-07T02:39:13;99879.47;;;14.89;100.00
5522;BME280;2783;48.730;8.006;2023-05-07T02:41:38;99882.13;;;14.89;100.00
5522;BME280;2783;48.730;8.006;2023-05-07T02:44:04;99886.53;;;14.90;100.00
5522;BME280;2783;48.730;8.006;2023-05-07T02:46:29;99889.13;;;14.91;100.00
5522;BME280;2783;48.730;8.006;2023-05-07T02:48:55;99891.88;;;14.90;100.00
5522;BME280;2783;48.730;8.006;2023-05-07T02:51:21;99846.59;;;14.68;100.00
5522;BME280;2783;48.730;8.006;2023-05-07T02:53:47;99877.03;;;14.84;100.00
5522;BME280;2783;48.730;8.006;2023-05-07T02:56:12;99880.97;;;14.77;100.00
5522;BME280;2783;48.730;8.006;2023-05-07T02:58:37;99884.56;;;14.76;100.00
5522;BME280;2783;48.730;8.006;2023-05-07T03:01:04;99886.47;;;14.74;100.00
5522;BME280;2783;48.730;8.006;2023-05-07T03:03:30;99878.03;;;14.82;100.00
5522;BME280;2783;48.730;8.006;2023-05-07T03:05:55;99882.69;;;14.78;100.00
5522;BME280;2783;48.730;8.006;2023-05-07T03:08:20;99883.88;;;14.73;100.00
5522;BME280;2783;48.730;8.006;2023-05-07T03:10:49;99884.09;;;14.68;100.00
5522;BME280;2783;48.730;8.006;2023-05-07T03:13:14;99884.34;;;14.64;100.00
5522;BME280;2783;48.730;8.006;2023-05-07T03:15:39;99878.97;;;14.64;100.00
5522;BME280;2783;48.730;8.006;2023-05-07T03:18:05;99881.50;;;14.67;100.00
5522;BME280;2783;48.730;8.006;2023-05-07T03:20:30;99880.41;;;14.71;100.00
5522;BME280;2783;48.730;8.006;2023-05-07T03:22:55;99876.94;;;14.69;100.00
5522;BME280;2783;48.730;8.006;2023-05-07T03:25:21;99885.84;;;14.69;100.00
5522;BME280;2783;48.730;8.006;2023-05-07T03:27:46;99875.13;;;14.52;100.00
5522;BME280;2783;48.730;8.006;2023-05-07T03:30:11;99887.00;;;14.46;100.00
5522;BME280;2783;48.730;8.006;2023-05-07T03:32:37;99879.28;;;14.40;100.00
5522;BME280;2783;48.730;8.006;2023-05-07T03:35:02;99879.38;;;14.39;100.00
5522;BME280;2783;48.730;8.006;2023-05-07T03:37:28;99881.25;;;14.37;100.00
5522;BME280;2783;48.730;8.006;2023-05-07T03:39:53;99883.13;;;14.35;100.00
5522;BME280;2783;48.730;8.006;2023-05-07T03:42:18;99872.41;;;14.35;100.00
5522;BME280;2783;48.730;8.006;2023-05-07T03:44:44;99871.50;;;14.36;100.00
5522;BME280;2783;48.730;8.006;2023-05-07T03:47:09;99877.94;;;14.32;100.00
5522;BME280;2783;48.730;8.006;2023-05-07T03:49:35;99879.75;;;14.31;100.00
5522;BME280;2783;48.730;8.006;2023-05-07T03:52:00;99870.25;;;14.24;100.00
5522;BME280;2783;48.730;8.006;2023-05-07T03:54:26;99873.94;;;14.22;100.00
5522;BME280;2783;48.730;8.006;2023-05-07T03:56:51;99882.72;;;14.25;100.00
5522;BME280;2783;48.730;8.006;2023-05-07T03:59:16;99885.31;;;14.27;100.00
5522;BME280;2783;48.730;8.006;2023-05-07T04:01:41;99888.13;;;14.24;100.00
5522;BME280;2783;48.730;8.006;2023-05-07T04:04:07;99891.75;;;14.23;100.00
5522;BME280;2783;48.730;8.006;2023-05-07T04:06:32;99897.88;;;14.25;100.00
5522;BME280;2783;48.730;8.006;2023-05-07T04:08:57;99897.09;;;14.23;100.00
5522;BME280;2783;48.730;8.006;2023-05-07T04:11:22;99901.22;;;14.30;100.00
5522;BME280;2783;48.730;8.006;2023-05-07T04:13:48;99886.75;;;14.34;100.00
5522;BME280;2783;48.730;8.006;2023-05-07T04:16:13;99899.19;;;14.35;100.00
5522;BME280;2783;48.730;8.006;2023-05-07T04:18:39;99892.97;;;14.34;100.00
5522;BME280;2783;48.730;8.006;2023-05-07T04:21:04;99899.34;;;14.32;100.00
5522;BME280;2783;48.730;8.006;2023-05-07T04:23:29;99894.78;;;14.34;100.00
5522;BME280;2783;48.730;8.006;2023-05-07T04:25:55;99899.97;;;14.37;100.00
5522;BME280;2783;48.730;8.006;2023-05-07T04:28:21;99897.84;;;14.43;100.00
5522;BME280;2783;48.730;8.006;2023-05-07T04:30:46;99905.66;;;14.48;100.00
5522;BME280;2783;48.730;8.006;2023-05-07T04:33:11;99907.25;;;14.52;100.00
5522;BME280;2783;48.730;8.006;2023-05-07T04:35:36;99905.53;;;14.51;100.00
5522;BME280;2783;48.730;8.006;2023-05-07T04:38:02;99907.16;;;14.53;100.00
5522;BME280;2783;48.730;8.006;2023-05-07T04:40:27;99912.44;;;14.55;100.00
5522;BME280;2783;48.730;8.006;2023-05-07T04:42:52;99911.59;;;14.55;100.00
5522;BME280;2783;48.730;8.006;2023-05-07T04:45:18;99914.03;;;14.59;100.00
5522;BME280;2783;48.730;8.006;2023-05-07T04:47:43;99916.47;;;14.64;100.00
5522;BME280;2783;48.730;8.006;2023-05-07T04:50:09;99915.47;;;14.66;100.00
5522;BME280;2783;48.730;8.006;2023-05-07T04:52:34;99931.56;;;14.65;100.00
5522;BME280;2783;48.730;8.006;2023-05-07T04:55:00;99940.47;;;14.65;100.00
5522;BME280;2783;48.730;8.006;2023-05-07T04:57:25;99941.28;;;14.67;100.00
5522;BME280;2783;48.730;8.006;2023-05-07T04:59:51;99946.53;;;14.69;100.00
5522;BME280;2783;48.730;8.006;2023-05-07T05:02:16;99947.44;;;14.69;100.00
5522;BME280;2783;48.730;8.006;2023-05-07T05:04:42;99950.56;;;14.77;100.00
5522;BME280;2783;48.730;8.006;2023-05-07T05:07:07;99954.59;;;14.86;100.00
5522;BME280;2783;48.730;8.006;2023-05-07T05:09:32;99948.84;;;14.93;100.00
5522;BME280;2783;48.730;8.006;2023-05-07T05:11:58;99954.66;;;15.01;100.00
5522;BME280;2783;48.730;8.006;2023-05-07T05:14:23;99949.00;;;15.07;100.00
5522;BME280;2783;48.730;8.006;2023-05-07T05:16:49;99945.03;;;15.14;100.00
5522;BME280;2783;48.730;8.006;2023-05-07T05:19:14;99941.09;;;15.21;100.00
5522;BME280;2783;48.730;8.006;2023-05-07T05:21:39;99940.63;;;15.30;100.00
5522;BME280;2783;48.730;8.006;2023-05-07T05:24:05;99945.19;;;15.45;100.00
5522;BME280;2783;48.730;8.006;2023-05-07T05:26:30;99941.25;;;15.52;100.00
5522;BME280;2783;48.730;8.006;2023-05-07T05:28:55;99948.88;;;15.60;100.00
5522;BME280;2783;48.730;8.006;2023-05-07T05:31:21;99949.56;;;15.63;100.00
5522;BME280;2783;48.730;8.006;2023-05-07T05:33:46;99958.13;;;15.54;100.00
5522;BME280;2783;48.730;8.006;2023-05-07T05:36:11;99947.75;;;15.64;100.00
5522;BME280;2783;48.730;8.006;2023-05-07T05:38:38;99960.06;;;15.83;100.00
5522;BME280;2783;48.730;8.006;2023-05-07T05:41:03;99957.78;;;16.09;100.00
5522;BME280;2783;48.730;8.006;2023-05-07T05:43:28;99952.16;;;16.60;100.00
5522;BME280;2783;48.730;8.006;2023-05-07T05:45:55;99945.41;;;16.98;98.27
5522;BME280;2783;48.730;8.006;2023-05-07T05:48:20;99943.81;;;17.09;94.47
5522;BME280;2783;48.730;8.006;2023-05-07T05:50:46;99953.63;;;17.25;92.93
5522;BME280;2783;48.730;8.006;2023-05-07T05:53:11;99951.28;;;17.48;92.55
5522;BME280;2783;48.730;8.006;2023-05-07T05:55:36;99955.53;;;17.66;91.62
5522;BME280;2783;48.730;8.006;2023-05-07T05:58:01;99966.47;;;17.63;88.90
5522;BME280;2783;48.730;8.006;2023-05-07T06:00:27;99972.16;;;17.87;88.51
5522;BME280;2783;48.730;8.006;2023-05-07T06:02:52;99954.34;;;18.12;88.32
5522;BME280;2783;48.730;8.006;2023-05-07T06:05:18;99962.78;;;18.34;87.40
5522;BME280;2783;48.730;8.006;2023-05-07T06:07:43;99964.88;;;18.44;85.82
5522;BME280;2783;48.730;8.006;2023-05-07T06:10:08;99969.22;;;18.46;84.85
5522;BME280;2783;48.730;8.006;2023-05-07T06:12:34;99965.19;;;18.39;83.74
5522;BME280;2783;48.730;8.006;2023-05-07T06:14:59;99969.69;;;18.53;83.76
5522;BME280;2783;48.730;8.006;2023-05-07T06:17:24;99976.53;;;18.71;84.36
5522;BME280;2783;48.730;8.006;2023-05-07T06:19:50;99984.00;;;18.80;82.56
5522;BME280;2783;48.730;8.006;2023-05-07T06:22:16;99987.47;;;18.82;82.62
5522;BME280;2783;48.730;8.006;2023-05-07T06:24:41;99975.00;;;18.93;82.51
5522;BME280;2783;48.730;8.006;2023-05-07T06:27:06;99989.03;;;18.98;81.52
5522;BME280;2783;48.730;8.006;2023-05-07T06:29:32;99985.47;;;18.98;82.43
5522;BME280;2783;48.730;8.006;2023-05-07T06:32:19;99993.41;;;19.26;81.51
5522;BME280;2783;48.730;8.006;2023-05-07T06:34:43;99990.09;;;19.22;78.69
5522;BME280;2783;48.730;8.006;2023-05-07T06:37:09;99998.81;;;19.26;77.72
5522;BME280;2783;48.730;8.006;2023-05-07T06:39:34;100003.97;;;19.16;78.93
5522;BME280;2783;48.730;8.006;2023-05-07T06:42:00;100009.56;;;19.01;79.54
5522;BME280;2783;48.730;8.006;2023-05-07T06:44:25;100000.94;;;19.08;81.26
5522;BME280;2783;48.730;8.006;2023-05-07T06:46:50;99981.34;;;19.19;81.82
5522;BME280;2783;48.730;8.006;2023-05-07T06:49:16;99980.34;;;19.34;81.90
5522;BME280;2783;48.730;8.006;2023-05-07T06:51:41;100002.44;;;19.39;79.23
5522;BME280;2783;48.730;8.006;2023-05-07T06:54:06;100015.47;;;19.32;79.13
5522;BME280;2783;48.730;8.006;2023-05-07T06:56:32;100017.44;;;19.43;78.81
5522;BME280;2783;48.730;8.006;2023-05-07T06:58:57;100002.56;;;19.50;77.97
5522;BME280;2783;48.730;8.006;2023-05-07T07:01:23;99989.50;;;19.69;78.37
5522;BME280;2783;48.730;8.006;2023-05-07T07:03:48;99983.03;;;19.84;77.86
5522;BME280;2783;48.730;8.006;2023-05-07T07:06:13;99993.50;;;19.89;77.78
5522;BME280;2783;48.730;8.006;2023-05-07T07:08:39;99998.25;;;19.85;75.26
5522;BME280;2783;48.730;8.006;2023-05-07T07:11:04;99995.88;;;20.31;75.64
5522;BME280;2783;48.730;8.006;2023-05-07T07:13:29;99999.78;;;20.86;74.39
5522;BME280;2783;48.730;8.006;2023-05-07T07:15:55;100007.56;;;21.38;72.33
5522;BME280;2783;48.730;8.006;2023-05-07T07:18:20;100009.56;;;21.58;71.65
5522;BME280;2783;48.730;8.006;2023-05-07T07:20:45;100004.69;;;21.29;70.31
5522;BME280;2783;48.730;8.006;2023-05-07T07:23:11;100004.03;;;21.60;69.68
5522;BME280;2783;48.730;8.006;2023-05-07T07:25:36;100017.13;;;21.66;68.57
5522;BME280;2783;48.730;8.006;2023-05-07T07:28:01;100013.47;;;21.78;68.04
5522;BME280;2783;48.730;8.006;2023-05-07T07:30:27;100010.53;;;22.03;68.05
5522;BME280;2783;48.730;8.006;2023-05-07T07:32:52;100016.47;;;21.86;67.25
5522;BME280;2783;48.730;8.006;2023-05-07T07:35:17;100023.22;;;21.57;68.49
5522;BME280;2783;48.730;8.006;2023-05-07T07:37:43;100015.63;;;21.27;70.13
5522;BME280;2783;48.730;8.006;2023-05-07T07:40:08;100017.75;;;21.69;69.67
5522;BME280;2783;48.730;8.006;2023-05-07T07:42:34;100015.63;;;22.18;67.81
5522;BME280;2783;48.730;8.006;2023-05-07T07:44:59;100010.44;;;22.15;65.76
5522;BME280;2783;48.730;8.006;2023-05-07T07:47:24;100007.84;;;22.36;66.44
5522;BME280;2783;48.730;8.006;2023-05-07T07:49:50;100023.13;;;22.48;65.36
5522;BME280;2783;48.730;8.006;2023-05-07T07:52:15;100018.06;;;22.22;67.17
5522;BME280;2783;48.730;8.006;2023-05-07T07:54:40;100014.72;;;22.51;67.20
5522;BME280;2783;48.730;8.006;2023-05-07T07:57:06;100012.97;;;22.83;66.63
5522;BME280;2783;48.730;8.006;2023-05-07T07:59:31;100007.72;;;22.49;66.01
5522;BME280;2783;48.730;8.006;2023-05-07T08:01:56;100006.03;;;23.01;66.18
5522;BME280;2783;48.730;8.006;2023-05-07T08:04:22;100007.06;;;23.73;64.74
5522;BME280;2783;48.730;8.006;2023-05-07T08:06:47;100011.28;;;24.28;60.43
5522;BME280;2783;48.730;8.006;2023-05-07T08:09:12;100005.72;;;24.69;58.81
5522;BME280;2783;48.730;8.006;2023-05-07T08:11:38;100008.31;;;24.80;56.96
5522;BME280;2783;48.730;8.006;2023-05-07T08:14:03;100012.50;;;24.54;57.36
5522;BME280;2783;48.730;8.006;2023-05-07T08:16:28;100012.66;;;24.92;55.90
5522;BME280;2783;48.730;8.006;2023-05-07T08:18:54;100014.34;;;24.93;56.64
5522;BME280;2783;48.730;8.006;2023-05-07T08:21:19;100007.94;;;24.94;57.06
5522;BME280;2783;48.730;8.006;2023-05-07T08:23:45;100012.22;;;24.57;58.03
5522;BME280;2783;48.730;8.006;2023-05-07T08:26:11;100011.66;;;24.63;58.82
5522;BME280;2783;48.730;8.006;2023-05-07T08:28:36;100014.88;;;24.68;60.70
5522;BME280;2783;48.730;8.006;2023-05-07T08:31:01;100016.09;;;24.94;59.84
5522;BME280;2783;48.730;8.006;2023-05-07T08:33:27;100009.44;;;24.68;59.01
5522;BME280;2783;48.730;8.006;2023-05-07T08:35:52;100014.50;;;24.82;59.71
5522;BME280;2783;48.730;8.006;2023-05-07T08:38:17;100021.84;;;25.01;58.63
5522;BME280;2783;48.730;8.006;2023-05-07T08:40:43;100023.97;;;24.97;59.56
5522;BME280;2783;48.730;8.006;2023-05-07T08:43:08;100018.69;;;25.15;57.00
5522;BME280;2783;48.730;8.006;2023-05-07T08:45:37;100029.78;;;25.51;56.27
5522;BME280;2783;48.730;8.006;2023-05-07T08:48:05;100029.56;;;26.01;54.60
5522;BME280;2783;48.730;8.006;2023-05-07T08:50:35;100028.16;;;25.87;54.38
5522;BME280;2783;48.730;8.006;2023-05-07T08:53:00;100016.91;;;26.19;52.96
5522;BME280;2783;48.730;8.006;2023-05-07T08:55:25;100025.22;;;26.27;53.65
5522;BME280;2783;48.730;8.006;2023-05-07T08:57:51;100016.25;;;26.44;52.86
5522;BME280;2783;48.730;8.006;2023-05-07T09:00:18;100008.75;;;26.46;52.15
5522;BME280;2783;48.730;8.006;2023-05-07T09:02:43;100014.59;;;26.24;51.44
5522;BME280;2783;48.730;8.006;2023-05-07T09:05:08;100009.22;;;26.41;52.67
5522;BME280;2783;48.730;8.006;2023-05-07T09:07:34;100008.47;;;27.03;50.64
5522;BME280;2783;48.730;8.006;2023-05-07T09:10:01;100010.63;;;27.44;50.46
5522;BME280;2783;48.730;8.006;2023-05-07T09:12:27;100002.69;;;27.76;49.97
5522;BME280;2783;48.730;8.006;2023-05-07T09:14:52;100009.22;;;28.26;50.09
5522;BME280;2783;48.730;8.006;2023-05-07T09:17:17;100005.34;;;28.63;47.20
5522;BME280;2783;48.730;8.006;2023-05-07T09:19:46;100006.22;;;28.71;46.08
5522;BME280;2783;48.730;8.006;2023-05-07T09:22:11;100012.13;;;28.51;46.47
5522;BME280;2783;48.730;8.006;2023-05-07T09:24:37;100010.13;;;28.61;45.47
5522;BME280;2783;48.730;8.006;2023-05-07T09:27:06;100009.38;;;27.99;45.39
5522;BME280;2783;48.730;8.006;2023-05-07T09:29:31;100001.34;;;28.23;46.89
5522;BME280;2783;48.730;8.006;2023-05-07T09:32:05;99996.28;;;28.36;46.46
5522;BME280;2783;48.730;8.006;2023-05-07T09:34:31;100006.00;;;27.62;48.90
5522;BME280;2783;48.730;8.006;2023-05-07T09:36:58;99996.09;;;28.04;49.90
5522;BME280;2783;48.730;8.006;2023-05-07T09:39:24;99993.81;;;28.25;48.64
5522;BME280;2783;48.730;8.006;2023-05-07T09:41:50;99998.84;;;28.72;46.58
5522;BME280;2783;48.730;8.006;2023-05-07T09:44:17;99987.25;;;28.70;47.22
5522;BME280;2783;48.730;8.006;2023-05-07T09:46:43;99991.66;;;28.63;45.36
5522;BME280;2783;48.730;8.006;2023-05-07T09:49:11;99997.22;;;28.95;45.41
5522;BME280;2783;48.730;8.006;2023-05-07T09:51:57;99999.38;;;29.09;44.75
5522;BME280;2783;48.730;8.006;2023-05-07T09:54:24;99996.94;;;29.06;44.60
5522;BME280;2783;48.730;8.006;2023-05-07T09:56:51;100002.66;;;28.79;46.15
5522;BME280;2783;48.730;8.006;2023-05-07T09:59:17;100001.16;;;28.84;43.85
5522;BME280;2783;48.730;8.006;2023-05-07T10:01:43;99998.94;;;28.88;44.17
5522;BME280;2783;48.730;8.006;2023-05-07T10:04:12;99995.47;;;28.78;47.69
5522;BME280;2783;48.730;8.006;2023-05-07T10:06:37;100001.06;;;29.10;44.66
5522;BME280;2783;48.730;8.006;2023-05-07T10:09:03;99997.19;;;28.79;45.79
5522;BME280;2783;48.730;8.006;2023-05-07T10:11:33;99994.03;;;28.58;45.69
5522;BME280;2783;48.730;8.006;2023-05-07T10:13:59;99995.19;;;28.55;46.09
5522;BME280;2783;48.730;8.006;2023-05-07T10:16:24;99993.06;;;28.41;46.23
5522;BME280;2783;48.730;8.006;2023-05-07T10:18:50;99986.38;;;28.10;46.37
5522;BME280;2783;48.730;8.006;2023-05-07T10:21:16;99993.09;;;28.15;46.18
5522;BME280;2783;48.730;8.006;2023-05-07T10:23:44;99985.53;;;28.09;46.60
5522;BME280;2783;48.730;8.006;2023-05-07T10:26:10;99985.72;;;28.16;46.32
5522;BME280;2783;48.730;8.006;2023-05-07T10:28:40;99983.44;;;27.86;46.16
5522;BME280;2783;48.730;8.006;2023-05-07T10:33:35;99989.59;;;27.62;48.07
5522;BME280;2783;48.730;8.006;2023-05-07T10:36:01;99985.00;;;27.88;48.45
5522;BME280;2783;48.730;8.006;2023-05-07T10:38:29;99987.53;;;27.82;46.61
5522;BME280;2783;48.730;8.006;2023-05-07T10:40:54;99980.81;;;27.76;47.16
5522;BME280;2783;48.730;8.006;2023-05-07T10:43:20;99983.59;;;27.84;48.75
5522;BME280;2783;48.730;8.006;2023-05-07T10:46:30;99975.19;;;27.95;48.76
5522;BME280;2783;48.730;8.006;2023-05-07T10:48:30;99978.22;;;28.18;47.99
5522;BME280;2783;48.730;8.006;2023-05-07T10:53:41;99987.50;;;28.25;46.39
5522;BME280;2783;48.730;8.006;2023-05-07T10:58:43;99984.78;;;27.99;44.84
5522;BME280;2783;48.730;8.006;2023-05-07T11:01:09;99990.91;;;27.93;45.36
5522;BME280;2783;48.730;8.006;2023-05-07T11:03:37;99987.31;;;28.18;46.96
5522;BME280;2783;48.730;8.006;2023-05-07T11:06:22;99985.81;;;28.32;45.61
5522;BME280;2783;48.730;8.006;2023-05-07T11:08:55;99978.66;;;28.65;46.56
5522;BME280;2783;48.730;8.006;2023-05-07T11:11:43;99978.13;;;29.11;45.07
5522;BME280;2783;48.730;8.006;2023-05-07T11:14:05;99978.69;;;29.38;45.63
5522;BME280;2783;48.730;8.006;2023-05-07T11:16:30;99976.13;;;29.37;44.59
5522;BME280;2783;48.730;8.006;2023-05-07T11:18:58;99991.44;;;28.98;43.52
5522;BME280;2783;48.730;8.006;2023-05-07T11:23:58;99991.63;;;29.04;43.36
5522;BME280;2783;48.730;8.006;2023-05-07T11:26:24;99995.72;;;29.00;44.83
5522;BME280;2783;48.730;8.006;2023-05-07T11:28:50;99997.00;;;29.30;44.14
5522;BME280;2783;48.730;8.006;2023-05-07T11:31:17;100001.47;;;29.39;43.10
5522;BME280;2783;48.730;8.006;2023-05-07T11:33:45;99973.03;;;29.32;44.10
5522;BME280;2783;48.730;8.006;2023-05-07T11:36:10;99991.50;;;29.14;43.59
5522;BME280;2783;48.730;8.006;2023-05-07T11:38:36;99994.59;;;29.35;43.15
5522;BME280;2783;48.730;8.006;2023-05-07T11:41:02;99994.44;;;29.44;43.81
5522;BME280;2783;48.730;8.006;2023-05-07T11:43:29;99993.94;;;29.65;45.29
5522;BME280;2783;48.730;8.006;2023-05-07T11:45:55;99997.03;;;29.78;42.75
5522;BME280;2783;48.730;8.006;2023-05-07T11:48:29;99989.84;;;29.85;40.51
5522;BME280;2783;48.730;8.006;2023-05-07T11:53:26;99992.06;;;29.98;40.97
5522;BME280;2783;48.730;8.006;2023-05-07T11:55:52;99993.78;;;29.50;41.20
5522;BME280;2783;48.730;8.006;2023-05-07T11:58:20;99993.94;;;29.57;42.92
5522;BME280;2783;48.730;8.006;2023-05-07T12:00:49;99994.94;;;29.48;42.65
5522;BME280;2783;48.730;8.006;2023-05-07T12:03:15;99998.22;;;29.27;42.26
5522;BME280;2783;48.730;8.006;2023-05-07T12:05:40;99999.38;;;29.09;42.64
5522;BME280;2783;48.730;8.006;2023-05-07T12:08:06;100002.41;;;29.06;44.22
5522;BME280;2783;48.730;8.006;2023-05-07T12:10:32;100000.22;;;28.68;43.43
5522;BME280;2783;48.730;8.006;2023-05-07T12:12:57;100003.66;;;28.44;44.96
5522;BME280;2783;48.730;8.006;2023-05-07T12:15:22;100003.44;;;28.29;45.86
5522;BME280;2783;48.730;8.006;2023-05-07T12:17:48;100002.09;;;28.33;46.17
5522;BME280;2783;48.730;8.006;2023-05-07T12:20:13;100001.16;;;28.17;46.80
5522;BME280;2783;48.730;8.006;2023-05-07T12:22:39;100007.03;;;28.04;48.14
5522;BME280;2783;48.730;8.006;2023-05-07T12:25:05;100003.06;;;28.24;48.30
5522;BME280;2783;48.730;8.006;2023-05-07T12:27:31;100002.31;;;28.14;46.68
5522;BME280;2783;48.730;8.006;2023-05-07T12:29:57;100004.03;;;28.15;46.93
5522;BME280;2783;48.730;8.006;2023-05-07T12:32:22;100000.94;;;28.44;45.38
5522;BME280;2783;48.730;8.006;2023-05-07T12:34:51;100002.34;;;28.90;46.52
5522;BME280;2783;48.730;8.006;2023-05-07T12:37:23;99996.34;;;29.60;44.71
5522;BME280;2783;48.730;8.006;2023-05-07T12:39:49;99994.59;;;29.35;44.84
5522;BME280;2783;48.730;8.006;2023-05-07T12:42:15;100004.69;;;28.77;44.41
5522;BME280;2783;48.730;8.006;2023-05-07T12:44:41;100000.25;;;28.76;43.40
5522;BME280;2783;48.730;8.006;2023-05-07T12:47:06;100005.41;;;28.79;45.30
5522;BME280;2783;48.730;8.006;2023-05-07T12:49:34;100003.50;;;28.45;44.51
5522;BME280;2783;48.730;8.006;2023-05-07T12:51:59;100016.59;;;28.00;43.37
5522;BME280;2783;48.730;8.006;2023-05-07T12:54:31;100014.44;;;28.12;45.49
5522;BME280;2783;48.730;8.006;2023-05-07T12:57:02;100013.25;;;28.14;45.00
5522;BME280;2783;48.730;8.006;2023-05-07T13:01:59;100013.25;;;28.14;43.49
5522;BME280;2783;48.730;8.006;2023-05-07T13:04:24;100020.47;;;28.15;43.43
5522;BME280;2783;48.730;8.006;2023-05-07T13:06:50;100009.59;;;28.31;43.05
5522;BME280;2783;48.730;8.006;2023-05-07T13:09:15;100010.78;;;28.55;43.52
5522;BME280;2783;48.730;8.006;2023-05-07T13:11:40;100007.13;;;28.20;42.72
5522;BME280;2783;48.730;8.006;2023-05-07T13:14:05;100004.66;;;28.09;44.07
5522;BME280;2783;48.730;8.006;2023-05-07T13:16:31;100010.13;;;28.09;45.00
5522;BME280;2783;48.730;8.006;2023-05-07T13:18:56;100009.19;;;27.75;44.15
5522;BME280;2783;48.730;8.006;2023-05-07T13:21:21;99999.81;;;27.95;45.93
5522;BME280;2783;48.730;8.006;2023-05-07T13:23:46;100004.47;;;28.03;44.38